This is the latest recevied weather packets stored in our database for station/object KB3UMW-13. If no packets are shown the sender has not sent any weather packets the latest 1 day(s).
| Time | Temp. | Humidity | Pressure | Rain* | Wind** | Luminosity | Snow |
|---|---|---|---|---|---|---|---|
| 1778068869 | 11.67° C | 99% | 1008.5 hPa | 5.33 mm | - | 33 W/m² | - |
| 1778066147 | 11.67° C | 99% | 1008.6 hPa | 1.78 mm | - | 16 W/m² | - |
| 1778065844 | 11.67° C | 99% | 1008.7 hPa | 0.51 mm | - | 9 W/m² | - |
| 1778065239 | 11.67° C | 99% | 1008.4 hPa | 1.78 mm | - | 25 W/m² | - |
| 1778064330 | 11.67° C | 99% | 1008.8 hPa | 4.32 mm | - | 5 W/m² | - |
| 1778064028 | 11.67° C | 98% | 1008.8 hPa | 4.83 mm | - | 2 W/m² | - |
| 1778063120 | 11.67° C | 98% | 1008.9 hPa | 4.83 mm | - | 1 W/m² | - |
| 1778062817 | 11.67° C | 97% | 1009 hPa | 3.56 mm | - | 1 W/m² | - |
| 1778061909 | 11.67° C | 95% | 1009.2 hPa | 1.78 mm | - | 0 W/m² | - |
| 1778060699 | 11.67° C | 94% | 1008.9 hPa | 0.51 mm | - | 0 W/m² | - |
| 1778059186 | 12.78° C | 89% | 1008.5 hPa | 0.51 mm | - | 0 W/m² | - |
| 1778058884 | 12.78° C | 89% | 1008.6 hPa | 1.27 mm | - | 0 W/m² | - |
| 1778058581 | 12.78° C | 88% | 1008.8 hPa | 0.51 mm | - | 0 W/m² | - |
| 1778058279 | 12.78° C | 87% | 1009.1 hPa | 0 mm | - | 0 W/m² | - |
| 1778057975 | 10.56° C | 92% | 1009 hPa | 0 mm | - | 0 W/m² | - |
| 1778057672 | 10° C | 93% | 1008.7 hPa | 0 mm | - | 0 W/m² | - |
| 1778057368 | 10° C | 94% | 1008.8 hPa | 0 mm | - | 0 W/m² | - |
| 1778056157 | 9.44° C | 94% | 1008.9 hPa | 0 mm | - | 0 W/m² | - |
| 1778055853 | 9.44° C | 94% | 1008.9 hPa | 0 mm | - | 0 W/m² | - |
| 1778055548 | 9.44° C | 94% | 1008.8 hPa | 0 mm | - | 0 W/m² | - |
| 1778055248 | 9.44° C | 94% | 1008.7 hPa | 0 mm | - | 0 W/m² | - |
| 1778054641 | 8.89° C | 93% | 1008.7 hPa | 0 mm | - | 0 W/m² | - |
| 1778054339 | 9.44° C | 94% | 1008.8 hPa | 0 mm | - | 0 W/m² | - |
| 1778054036 | 9.44° C | 93% | 1008.7 hPa | 0 mm | - | 0 W/m² | - |
| 1778053733 | 9.44° C | 93% | 1008.9 hPa | 0 mm | - | 0 W/m² | - |
* Rain latest hour (hover to see other rain measurements)
** Current wind speed in m/s (hover to see current wind gust speed)